createdAt,value
2022-12-14T00:01:30.505Z,96206.50
2022-12-14T00:03:57.125Z,96208.13
2022-12-14T00:06:25.993Z,96213.97
2022-12-14T00:08:58.410Z,96217.59
2022-12-14T00:11:25.635Z,96211.38
2022-12-14T00:14:03.090Z,96206.13
2022-12-14T00:16:32.900Z,96218.22
2022-12-14T00:19:01.296Z,96196.31
2022-12-14T00:21:28.459Z,96188.16
2022-12-14T00:23:57.144Z,96186.22
2022-12-14T00:26:31.777Z,96193.41
2022-12-14T00:28:59.960Z,96192.78
2022-12-14T00:31:26.624Z,96172.97
2022-12-14T00:33:56.633Z,96200.13
2022-12-14T00:36:25.989Z,96208.09
2022-12-14T00:38:54.425Z,96191.56
2022-12-14T00:41:20.971Z,96205.31
2022-12-14T00:43:49.333Z,96196.84
2022-12-14T00:46:16.862Z,96186.88
2022-12-14T00:48:43.530Z,96188.53
2022-12-14T00:51:10.066Z,96183.94
2022-12-14T00:53:36.595Z,96185.59
2022-12-14T00:56:07.459Z,96185.13
2022-12-14T00:58:34.491Z,96175.66
2022-12-14T01:01:06.467Z,96190.22
2022-12-14T01:03:34.131Z,96170.75
2022-12-14T01:06:01.611Z,96177.13
2022-12-14T01:08:35.516Z,96171.91
2022-12-14T01:11:10.116Z,96182.50
2022-12-14T01:13:38.360Z,96182.66
2022-12-14T01:16:11.339Z,96182.66
2022-12-14T01:18:39.604Z,96186.75
2022-12-14T01:21:14.268Z,96166.13
2022-12-14T01:23:41.689Z,96182.31
2022-12-14T01:26:08.520Z,96178.88
2022-12-14T01:28:35.154Z,96168.25
2022-12-14T01:31:12.512Z,96161.84
2022-12-14T01:33:39.383Z,96162.47
2022-12-14T01:36:11.760Z,96164.44
2022-12-14T01:38:38.316Z,96178.34
2022-12-14T01:41:06.162Z,96185.19
2022-12-14T01:44:02.204Z,96180.59
2022-12-14T01:46:38.447Z,96178.50
2022-12-14T01:49:31.225Z,96168.38
2022-12-14T01:52:09.721Z,96177.34
2022-12-14T01:55:00.900Z,96176.72
2022-12-14T01:57:36.467Z,96164.16
2022-12-14T02:00:08.869Z,96155.81
2022-12-14T02:02:38.816Z,96167.59
2022-12-14T02:05:08.046Z,96151.88
2022-12-14T02:07:34.747Z,96150.25
2022-12-14T02:10:03.465Z,96168.88
2022-12-14T02:12:44.360Z,96159.91
2022-12-14T02:15:12.835Z,96167.94
2022-12-14T02:17:41.374Z,96155.19
2022-12-14T02:20:11.423Z,96159.63
2022-12-14T02:23:12.082Z,96156.53
2022-12-14T02:25:44.407Z,96163.41
2022-12-14T02:28:37.261Z,96169.09
2022-12-14T02:31:28.078Z,96158.47
2022-12-14T02:34:29.891Z,96155.38
2022-12-14T02:37:06.014Z,96163.84
2022-12-14T02:39:51.349Z,96148.00
2022-12-14T02:42:32.019Z,96164.66
2022-12-14T02:45:23.430Z,96160.22
2022-12-14T02:48:04.061Z,96148.91
2022-12-14T02:50:41.960Z,96153.50
2022-12-14T02:53:37.168Z,96148.56
2022-12-14T02:56:08.667Z,96162.47
2022-12-14T02:58:50.472Z,96156.22
2022-12-14T03:01:22.166Z,96133.94
2022-12-14T03:03:49.267Z,96157.66
2022-12-14T03:06:26.333Z,96160.53
2022-12-14T03:09:11.201Z,96154.19
2022-12-14T03:11:41.940Z,96156.16
2022-12-14T03:14:17.384Z,96138.19
2022-12-14T03:16:49.753Z,96157.84
2022-12-14T03:19:39.716Z,96145.13
2022-12-14T03:22:11.581Z,96144.06
2022-12-14T03:24:42.689Z,96120.47
2022-12-14T03:27:24.116Z,96132.84
2022-12-14T03:29:58.702Z,96136.41
2022-12-14T03:32:30.689Z,96139.03
2022-12-14T03:35:18.007Z,96135.72
2022-12-14T03:37:53.289Z,96138.47
2022-12-14T03:40:30.223Z,96135.88
2022-12-14T03:43:10.788Z,96138.00
2022-12-14T03:46:01.491Z,96122.75
2022-12-14T03:48:35.728Z,96133.44
2022-12-14T03:51:25.202Z,96127.53
2022-12-14T03:53:59.989Z,96117.25
2022-12-14T03:56:41.537Z,96128.66
2022-12-14T03:59:13.773Z,96124.72
2022-12-14T04:02:00.417Z,96114.44
2022-12-14T04:04:46.969Z,96117.38
2022-12-14T04:07:52.878Z,96109.38
2022-12-14T04:10:48.791Z,96110.84
2022-12-14T04:13:40.409Z,96102.34
2022-12-14T04:16:33.975Z,96116.72
2022-12-14T04:19:06.942Z,96104.75
2022-12-14T04:21:45.375Z,96096.44
2022-12-14T04:24:52.977Z,96097.78
2022-12-14T04:27:31.046Z,96108.69
2022-12-14T04:30:00.903Z,96092.47
2022-12-14T04:32:41.540Z,96092.50
2022-12-14T04:35:13.798Z,96103.72
2022-12-14T04:37:44.504Z,96103.22
2022-12-14T04:40:26.054Z,96091.16
2022-12-14T04:43:01.336Z,96105.94
2022-12-14T04:45:47.008Z,96102.97
2022-12-14T04:48:25.311Z,96108.19
2022-12-14T04:51:14.664Z,96099.69
2022-12-14T04:53:46.304Z,96123.19
2022-12-14T04:56:26.962Z,96127.81
2022-12-14T04:58:54.353Z,96123.91
2022-12-14T05:01:20.876Z,96126.28
2022-12-14T05:04:10.932Z,96132.66
2022-12-14T05:06:56.470Z,96127.34
2022-12-14T05:09:51.403Z,96135.16
2022-12-14T05:12:47.224Z,96127.78
2022-12-14T05:15:19.124Z,96121.91
2022-12-14T05:17:45.995Z,96117.91
2022-12-14T05:20:30.896Z,96118.50
2022-12-14T05:22:57.402Z,96110.75
2022-12-14T05:25:24.003Z,96120.28
2022-12-14T05:27:50.545Z,96109.44
2022-12-14T05:30:17.174Z,96132.91
2022-12-14T05:32:43.768Z,96111.53
2022-12-14T05:35:12.269Z,96115.28
2022-12-14T05:37:38.747Z,96113.63
2022-12-14T05:40:06.283Z,96111.81
2022-12-14T05:42:32.802Z,96123.75
2022-12-14T05:45:00.183Z,96118.78
2022-12-14T05:47:27.661Z,96109.53
2022-12-14T05:49:54.249Z,96105.56
2022-12-14T05:52:20.801Z,96115.03
2022-12-14T05:54:47.308Z,96109.41
2022-12-14T05:57:13.815Z,96109.22
2022-12-14T05:59:40.367Z,96111.22
2022-12-14T06:02:06.992Z,96116.16
2022-12-14T06:04:33.691Z,96120.78
2022-12-14T06:07:03.907Z,96124.84
2022-12-14T06:09:30.458Z,96110.75
2022-12-14T06:11:56.952Z,96110.34
2022-12-14T06:14:24.448Z,96127.31
2022-12-14T06:16:51.128Z,96120.47
2022-12-14T06:19:17.625Z,96129.53
2022-12-14T06:21:44.856Z,96131.94
2022-12-14T06:24:13.135Z,96149.84
2022-12-14T06:26:43.528Z,96138.97
2022-12-14T06:29:20.593Z,96140.06
2022-12-14T06:31:49.205Z,96143.63
2022-12-14T06:34:18.880Z,96148.69
2022-12-14T06:36:47.024Z,96137.84
2022-12-14T06:39:16.111Z,96127.00
2022-12-14T06:41:43.230Z,96121.28
2022-12-14T06:44:14.267Z,96151.91
2022-12-14T06:46:41.693Z,96150.75
2022-12-14T06:49:12.099Z,96135.91
2022-12-14T06:51:40.479Z,96161.16
2022-12-14T06:54:08.133Z,96149.41
2022-12-14T06:56:35.403Z,96152.81
2022-12-14T06:59:01.926Z,96155.78
2022-12-14T07:01:31.614Z,96160.78
2022-12-14T07:04:02.588Z,96154.34
2022-12-14T07:06:32.996Z,96152.00
2022-12-14T07:09:05.025Z,96158.41
2022-12-14T07:11:31.625Z,96166.31
2022-12-14T07:14:01.621Z,96163.41
2022-12-14T07:16:31.634Z,96161.28
2022-12-14T07:19:01.606Z,96148.69
2022-12-14T07:21:28.219Z,96143.78
2022-12-14T07:23:56.461Z,96158.41
2022-12-14T07:26:25.787Z,96155.63
2022-12-14T07:28:53.818Z,96157.59
2022-12-14T07:31:23.516Z,96171.91
2022-12-14T07:33:53.044Z,96175.50
2022-12-14T07:36:20.731Z,96168.81
2022-12-14T07:38:48.843Z,96171.66
2022-12-14T07:41:23.131Z,96173.53
2022-12-14T07:43:51.522Z,96153.53
2022-12-14T07:46:21.023Z,96169.56
2022-12-14T07:48:50.650Z,96178.84
2022-12-14T07:51:20.577Z,96173.63
2022-12-14T07:53:47.523Z,96170.34
2022-12-14T07:56:20.139Z,96183.50
2022-12-14T07:58:46.665Z,96172.59
2022-12-14T08:01:17.969Z,96185.75
2022-12-14T08:03:51.227Z,96192.31
2022-12-14T08:06:18.909Z,96186.03
2022-12-14T08:08:45.824Z,96185.91
2022-12-14T08:11:13.247Z,96197.69
2022-12-14T08:13:40.037Z,96200.81
2022-12-14T08:16:09.569Z,96202.81
2022-12-14T08:18:36.313Z,96202.22
2022-12-14T08:21:04.960Z,96188.34
2022-12-14T08:23:32.786Z,96188.56
2022-12-14T08:26:05.093Z,96186.78
2022-12-14T08:28:33.081Z,96195.69
2022-12-14T08:31:08.352Z,96203.31
2022-12-14T08:33:36.741Z,96210.56
2022-12-14T08:36:18.220Z,96221.06
2022-12-14T08:38:45.492Z,96238.41
2022-12-14T08:41:14.329Z,96229.31
2022-12-14T08:43:41.680Z,96234.69
2022-12-14T08:46:10.957Z,96237.59
2022-12-14T08:48:38.111Z,96243.53
2022-12-14T08:51:07.191Z,96239.50
2022-12-14T08:53:34.536Z,96251.94
2022-12-14T08:56:05.637Z,96250.63
2022-12-14T08:58:32.239Z,96259.59
2022-12-14T09:01:03.873Z,96250.69
2022-12-14T09:03:34.124Z,96247.66
2022-12-14T09:06:09.951Z,96263.75
2022-12-14T09:08:37.088Z,96270.69
2022-12-14T09:11:05.648Z,96271.19
2022-12-14T09:13:33.517Z,96280.53
2022-12-14T09:16:06.741Z,96286.88
2022-12-14T09:18:34.518Z,96292.41
2022-12-14T09:21:04.163Z,96295.13
2022-12-14T09:23:33.317Z,96299.81
2022-12-14T09:26:04.700Z,96304.16
2022-12-14T09:28:36.723Z,96301.16
2022-12-14T09:31:07.005Z,96306.44
2022-12-14T09:33:34.365Z,96303.81
2022-12-14T09:36:09.061Z,96302.09
2022-12-14T09:38:37.707Z,96301.06
2022-12-14T09:41:07.669Z,96305.19
2022-12-14T09:44:06.659Z,96310.31
2022-12-14T09:47:03.075Z,96299.50
2022-12-14T09:49:41.064Z,96308.31
2022-12-14T09:52:15.892Z,96300.56
2022-12-14T09:54:44.559Z,96310.94
2022-12-14T09:57:27.671Z,96318.88
2022-12-14T09:59:54.812Z,96314.78
2022-12-14T10:02:34.169Z,96320.09
2022-12-14T10:05:44.370Z,96323.75
2022-12-14T10:08:26.446Z,96327.81
2022-12-14T10:11:03.455Z,96324.78
2022-12-14T10:13:40.675Z,96330.06
2022-12-14T10:16:38.221Z,96330.06
2022-12-14T10:19:07.962Z,96331.47
2022-12-14T10:21:54.342Z,96332.31
2022-12-14T10:24:30.736Z,96330.06
2022-12-14T10:26:57.653Z,96330.25
2022-12-14T10:29:39.824Z,96322.53
2022-12-14T10:32:09.637Z,96331.69
2022-12-14T10:34:40.517Z,96323.19
2022-12-14T10:37:22.855Z,96328.88
2022-12-14T10:40:30.806Z,96331.94
2022-12-14T10:43:22.768Z,96325.81
2022-12-14T10:46:14.843Z,96321.13
2022-12-14T10:48:51.040Z,96318.47
2022-12-14T10:51:38.234Z,96308.47
2022-12-14T10:54:35.176Z,96312.75
2022-12-14T10:57:02.262Z,96308.66
2022-12-14T10:59:39.614Z,96304.19
2022-12-14T11:02:31.691Z,96299.91
2022-12-14T11:05:06.237Z,96306.25
2022-12-14T11:07:33.225Z,96309.91
2022-12-14T11:10:32.643Z,96308.25
2022-12-14T11:13:03.654Z,96299.31
2022-12-14T11:15:43.106Z,96298.50
2022-12-14T11:18:12.754Z,96308.28
2022-12-14T11:21:05.334Z,96308.84
2022-12-14T11:23:48.037Z,96306.91
2022-12-14T11:26:25.690Z,96298.66
2022-12-14T11:28:57.805Z,96307.09
2022-12-14T11:31:39.090Z,96298.09
2022-12-14T11:34:22.180Z,96296.72
2022-12-14T11:37:11.932Z,96301.88
2022-12-14T11:39:42.565Z,96294.84
2022-12-14T11:42:17.600Z,96290.25
2022-12-14T11:44:45.933Z,96287.41
2022-12-14T11:47:13.958Z,96284.63
2022-12-14T11:49:40.515Z,96291.81
2022-12-14T11:52:19.879Z,96296.06
2022-12-14T11:54:52.706Z,96290.19
2022-12-14T11:57:54.544Z,96285.91
2022-12-14T12:00:27.631Z,96285.19
2022-12-14T12:03:06.655Z,96285.50
2022-12-14T12:05:39.542Z,96288.91
2022-12-14T12:08:24.449Z,96274.91
2022-12-14T12:10:54.278Z,96278.38
2022-12-14T12:13:23.811Z,96278.97
2022-12-14T12:15:55.165Z,96278.09
2022-12-14T12:18:46.029Z,96278.91
2022-12-14T12:21:25.390Z,96272.41
2022-12-14T12:24:07.287Z,96281.13
2022-12-14T12:26:41.416Z,96272.78
2022-12-14T12:29:22.739Z,96284.00
2022-12-14T12:31:56.245Z,96282.38
2022-12-14T12:34:43.005Z,96281.56
2022-12-14T12:37:31.012Z,96275.28
2022-12-14T12:40:10.456Z,96288.59
2022-12-14T12:42:53.614Z,96280.00
2022-12-14T12:45:46.611Z,96284.88
2022-12-14T12:48:28.072Z,96276.25
2022-12-14T12:51:02.251Z,96271.16
2022-12-14T12:53:31.899Z,96274.19
2022-12-14T12:56:13.293Z,96272.22
2022-12-14T12:58:40.930Z,96270.53
2022-12-14T13:01:21.352Z,96271.03
2022-12-14T13:03:51.677Z,96268.44
2022-12-14T13:06:41.052Z,96274.81
2022-12-14T13:09:31.553Z,96269.84
2022-12-14T13:12:03.655Z,96260.47
2022-12-14T13:14:42.846Z,96273.97
2022-12-14T13:17:34.425Z,96262.53
2022-12-14T13:20:06.225Z,96271.09
2022-12-14T13:22:34.330Z,96271.59
2022-12-14T13:25:16.201Z,96265.34
2022-12-14T13:28:28.181Z,96261.44
2022-12-14T13:31:35.857Z,96255.56
2022-12-14T13:34:38.481Z,96264.34
2022-12-14T13:37:36.657Z,96261.69
2022-12-14T13:40:21.519Z,96266.28
2022-12-14T13:43:25.895Z,96263.81
2022-12-14T13:45:53.115Z,96271.53
2022-12-14T13:48:31.771Z,96264.03
2022-12-14T13:51:05.518Z,96260.94
2022-12-14T13:53:42.096Z,96254.88
2022-12-14T13:56:09.331Z,96251.63
2022-12-14T13:58:44.772Z,96260.47
2022-12-14T14:01:39.442Z,96273.19
2022-12-14T14:04:27.575Z,96266.72
2022-12-14T14:06:56.663Z,96268.75
2022-12-14T14:09:26.374Z,96273.28
2022-12-14T14:12:16.231Z,96289.69
2022-12-14T14:14:55.871Z,96280.53
2022-12-14T14:17:25.061Z,96293.78
2022-12-14T14:19:56.888Z,96277.69
2022-12-14T14:22:25.964Z,96294.41
2022-12-14T14:25:26.229Z,96289.31
2022-12-14T14:27:54.716Z,96288.69
2022-12-14T14:30:37.100Z,96295.09
2022-12-14T14:33:44.730Z,96283.19
2022-12-14T14:36:21.302Z,96286.13
2022-12-14T14:38:49.245Z,96292.88
2022-12-14T14:41:23.938Z,96307.09
2022-12-14T14:43:57.011Z,96307.19
2022-12-14T14:46:53.414Z,96309.59
2022-12-14T14:49:36.330Z,96308.56
2022-12-14T14:52:39.980Z,96308.69
2022-12-14T14:58:32.224Z,96316.59
2022-12-14T15:01:24.932Z,96306.25
2022-12-14T15:03:53.616Z,96301.59
2022-12-14T15:06:39.645Z,96296.28
2022-12-14T15:09:20.957Z,96297.69
2022-12-14T15:11:53.595Z,96290.06
2022-12-14T15:14:48.676Z,96299.16
2022-12-14T15:17:22.179Z,96291.75
2022-12-14T15:19:53.036Z,96291.31
2022-12-14T15:22:30.949Z,96292.56
2022-12-14T15:25:01.776Z,96309.13
2022-12-14T15:27:37.420Z,96308.09
2022-12-14T15:30:23.376Z,96306.75
2022-12-14T15:33:09.331Z,96306.63
2022-12-14T15:35:39.008Z,96296.25
2022-12-14T15:38:34.668Z,96301.81
2022-12-14T15:41:04.944Z,96302.25
2022-12-14T15:43:34.385Z,96307.84
2022-12-14T15:46:03.623Z,96295.66
2022-12-14T15:48:34.958Z,96304.88
2022-12-14T15:51:07.558Z,96304.28
2022-12-14T15:53:38.270Z,96315.09
2022-12-14T15:56:31.240Z,96315.09
2022-12-14T15:59:04.191Z,96317.22
2022-12-14T16:01:39.928Z,96320.50
2022-12-14T16:04:11.968Z,96317.38
2022-12-14T16:06:43.103Z,96321.97
2022-12-14T16:09:23.653Z,96322.69
2022-12-14T16:11:54.823Z,96325.03
2022-12-14T16:14:46.712Z,96321.59
2022-12-14T16:17:20.855Z,96321.00
2022-12-14T16:20:00.218Z,96322.91
2022-12-14T16:22:38.570Z,96328.22
2022-12-14T16:25:07.900Z,96320.28
2022-12-14T16:27:39.627Z,96320.72
2022-12-14T16:30:24.194Z,96320.28
2022-12-14T16:33:10.908Z,96331.44
2022-12-14T16:35:38.285Z,96331.47
2022-12-14T16:38:12.406Z,96338.03
2022-12-14T16:40:43.343Z,96339.84
2022-12-14T16:43:37.489Z,96345.53
2022-12-14T16:46:04.022Z,96340.44
2022-12-14T16:48:36.643Z,96338.66
2022-12-14T16:51:32.674Z,96337.44
2022-12-14T16:54:06.069Z,96340.47
2022-12-14T16:56:45.038Z,96352.03
2022-12-14T16:59:27.374Z,96349.81
2022-12-14T17:01:54.379Z,96345.94
2022-12-14T17:04:22.619Z,96338.00
2022-12-14T17:06:52.390Z,96335.16
2022-12-14T17:09:28.015Z,96331.91
2022-12-14T17:12:04.467Z,96337.41
2022-12-14T17:14:33.917Z,96340.03
2022-12-14T17:17:04.329Z,96346.31
2022-12-14T17:19:38.666Z,96348.94
2022-12-14T17:22:12.020Z,96350.53
2022-12-14T17:24:38.631Z,96343.63
2022-12-14T17:27:05.170Z,96348.31
2022-12-14T17:29:33.301Z,96342.41
2022-12-14T17:32:03.170Z,96348.06
2022-12-14T17:34:32.869Z,96337.13
2022-12-14T17:37:03.376Z,96339.78
2022-12-14T17:39:35.735Z,96333.69
2022-12-14T17:42:02.391Z,96342.44
2022-12-14T17:44:31.228Z,96343.66
2022-12-14T17:46:57.746Z,96346.50
2022-12-14T17:49:36.097Z,96323.94
2022-12-14T17:52:05.490Z,96342.69
2022-12-14T17:54:32.505Z,96324.75
2022-12-14T17:57:02.272Z,96331.06
2022-12-14T17:59:31.416Z,96340.03
2022-12-14T18:01:58.114Z,96336.56
2022-12-14T18:04:25.483Z,96348.13
2022-12-14T18:06:52.226Z,96341.19
2022-12-14T18:09:18.824Z,96345.06
2022-12-14T18:12:21.032Z,96339.94
2022-12-14T18:14:32.012Z,96342.31
2022-12-14T18:17:09.677Z,96355.09
2022-12-14T18:19:38.363Z,96340.81
2022-12-14T18:22:06.567Z,96353.81
2022-12-14T18:24:33.597Z,96359.09
2022-12-14T18:27:03.160Z,96360.38
2022-12-14T18:29:33.643Z,96351.22
2022-12-14T18:32:02.703Z,96363.84
2022-12-14T18:34:33.039Z,96362.00
2022-12-14T18:37:03.973Z,96361.16
2022-12-14T18:39:33.143Z,96370.81
2022-12-14T18:42:02.962Z,96370.59
2022-12-14T18:44:34.436Z,96370.16
2022-12-14T18:47:33.161Z,96364.03
2022-12-14T18:49:53.801Z,96352.28
2022-12-14T18:52:20.543Z,96376.50
2022-12-14T18:54:54.174Z,96371.41
2022-12-14T18:57:23.046Z,96374.06
2022-12-14T18:59:51.936Z,96390.31
2022-12-14T19:02:32.465Z,96397.66
2022-12-14T19:05:01.577Z,96390.59
2022-12-14T19:07:28.079Z,96387.34
2022-12-14T19:09:54.743Z,96402.59
2022-12-14T19:12:24.190Z,96384.31
2022-12-14T19:14:51.099Z,96395.69
2022-12-14T19:17:18.290Z,96400.56
2022-12-14T19:19:44.983Z,96394.03
2022-12-14T19:22:11.811Z,96390.63
2022-12-14T19:24:38.366Z,96391.47
2022-12-14T19:27:13.035Z,96404.50
2022-12-14T19:29:39.672Z,96391.09
2022-12-14T19:32:06.341Z,96403.50
2022-12-14T19:34:32.964Z,96403.06
2022-12-14T19:37:03.037Z,96384.31
2022-12-14T19:39:32.375Z,96405.47
2022-12-14T19:42:01.517Z,96401.81
2022-12-14T19:44:33.495Z,96392.41
2022-12-14T19:47:03.739Z,96407.00
2022-12-14T19:49:31.809Z,96393.06
2022-12-14T19:52:01.889Z,96406.88
2022-12-14T19:54:31.575Z,96417.44
2022-12-14T19:57:01.395Z,96421.47
2022-12-14T19:59:31.021Z,96402.53
2022-12-14T20:02:12.409Z,96425.16
2022-12-14T20:04:46.199Z,96414.53
2022-12-14T20:07:18.615Z,96425.94
2022-12-14T20:09:47.252Z,96426.97
2022-12-14T20:12:35.414Z,96423.94
2022-12-14T20:17:46.388Z,96425.19
2022-12-14T20:20:12.938Z,96436.19
2022-12-14T20:22:39.524Z,96420.06
2022-12-14T20:25:06.130Z,96424.53
2022-12-14T20:27:37.457Z,96442.22
2022-12-14T20:30:07.850Z,96435.91
2022-12-14T20:32:34.507Z,96420.41
2022-12-14T20:35:02.122Z,96428.72
2022-12-14T20:37:30.855Z,96432.44
2022-12-14T20:39:57.338Z,96431.63
2022-12-14T20:42:23.907Z,96433.44
2022-12-14T20:44:50.426Z,96423.66
2022-12-14T20:47:17.125Z,96435.63
2022-12-14T20:49:43.777Z,96430.94
2022-12-14T20:52:10.347Z,96448.81
2022-12-14T20:54:37.043Z,96447.16
2022-12-14T20:57:03.749Z,96451.06
2022-12-14T20:59:33.163Z,96445.59
2022-12-14T21:02:03.518Z,96447.03
2022-12-14T21:04:33.245Z,96442.50
2022-12-14T21:07:02.694Z,96446.75
2022-12-14T21:09:30.529Z,96439.38
2022-12-14T21:12:15.529Z,96432.47
2022-12-14T21:14:43.012Z,96448.72
2022-12-14T21:17:11.109Z,96440.13
2022-12-14T21:19:37.623Z,96440.69
2022-12-14T21:22:12.323Z,96450.72
2022-12-14T21:27:31.060Z,96437.56
2022-12-14T21:29:57.902Z,96439.53
2022-12-14T21:35:06.154Z,96450.00
2022-12-14T21:37:32.718Z,96442.78
2022-12-14T21:40:03.795Z,96448.88
2022-12-14T21:42:33.871Z,96429.78
2022-12-14T21:45:04.904Z,96426.03
2022-12-14T21:47:34.426Z,96427.81
2022-12-14T21:50:04.291Z,96445.72
2022-12-14T21:52:33.962Z,96438.50
2022-12-14T21:55:03.933Z,96436.94
2022-12-14T21:57:52.603Z,96451.69
2022-12-14T22:00:23.209Z,96446.84
2022-12-14T22:02:49.942Z,96435.13
2022-12-14T22:05:16.963Z,96435.38
2022-12-14T22:07:43.645Z,96445.25
2022-12-14T22:10:10.269Z,96459.00
2022-12-14T22:12:36.864Z,96456.59
2022-12-14T22:15:04.145Z,96443.63
2022-12-14T22:17:34.893Z,96459.75
2022-12-14T22:20:05.526Z,96444.06
2022-12-14T22:22:32.332Z,96452.03
2022-12-14T22:25:03.670Z,96445.38
2022-12-14T22:27:33.715Z,96447.47
2022-12-14T22:30:05.452Z,96449.94
2022-12-14T22:32:32.438Z,96450.78
2022-12-14T22:35:02.573Z,96436.75
2022-12-14T22:37:32.630Z,96439.59
2022-12-14T22:40:01.792Z,96450.16
2022-12-14T22:42:29.210Z,96453.16
2022-12-14T22:44:56.510Z,96445.88
2022-12-14T22:47:23.074Z,96446.75
2022-12-14T22:49:49.660Z,96455.28
2022-12-14T22:52:21.308Z,96462.47
2022-12-14T22:54:50.980Z,96461.63
2022-12-14T22:57:19.070Z,96452.09
2022-12-14T22:59:55.682Z,96465.25
2022-12-14T23:02:23.197Z,96466.47
2022-12-14T23:04:50.167Z,96462.56
2022-12-14T23:07:16.871Z,96457.72
2022-12-14T23:10:01.837Z,96450.38
2022-12-14T23:12:46.952Z,96441.22
2022-12-14T23:15:32.157Z,96437.34
2022-12-14T23:18:24.617Z,96447.13
2022-12-14T23:21:10.572Z,96439.28
2022-12-14T23:23:56.758Z,96428.72
2022-12-14T23:26:41.792Z,96439.78
2022-12-14T23:29:26.756Z,96440.41
2022-12-14T23:32:11.727Z,96431.09
2022-12-14T23:34:56.624Z,96434.94
2022-12-14T23:37:42.140Z,96431.63
2022-12-14T23:40:27.605Z,96425.91
2022-12-14T23:43:12.630Z,96431.69
2022-12-14T23:45:57.626Z,96433.88
2022-12-14T23:48:42.999Z,96414.28
2022-12-14T23:51:27.960Z,96418.56
2022-12-14T23:54:13.019Z,96414.28
2022-12-14T23:56:58.653Z,96428.75
2022-12-14T23:59:43.486Z,96414.94
